sensor_id;sensor_type;location;lat;lon;timestamp;pressure;altitude;pressure_sealevel;temperature;humidity
79461;BME280;68929;42.666;23.324;2023-08-08T00:01:16;94408.69;;;17.40;nan
79461;BME280;68929;42.666;23.324;2023-08-08T00:03:41;94423.88;;;17.30;nan
79461;BME280;68929;42.666;23.324;2023-08-08T00:06:07;94431.00;;;17.71;nan
79461;BME280;68929;42.666;23.324;2023-08-08T00:08:32;94417.38;;;17.63;nan
79461;BME280;68929;42.666;23.324;2023-08-08T00:10:58;94422.31;;;17.39;nan
79461;BME280;68929;42.666;23.324;2023-08-08T00:13:23;94428.47;;;16.93;nan
79461;BME280;68929;42.666;23.324;2023-08-08T00:15:48;94403.94;;;17.01;nan
79461;BME280;68929;42.666;23.324;2023-08-08T00:18:14;94430.75;;;17.16;nan
79461;BME280;68929;42.666;23.324;2023-08-08T00:20:39;94423.69;;;16.95;nan
79461;BME280;68929;42.666;23.324;2023-08-08T00:23:05;94398.56;;;16.91;nan
79461;BME280;68929;42.666;23.324;2023-08-08T00:25:30;94405.00;;;16.95;nan
79461;BME280;68929;42.666;23.324;2023-08-08T00:27:56;94438.81;;;17.26;nan
79461;BME280;68929;42.666;23.324;2023-08-08T00:30:21;94415.03;;;16.77;nan
79461;BME280;68929;42.666;23.324;2023-08-08T00:32:46;94444.16;;;17.26;nan
79461;BME280;68929;42.666;23.324;2023-08-08T00:35:12;94462.59;;;17.27;nan
79461;BME280;68929;42.666;23.324;2023-08-08T00:37:37;94455.16;;;17.34;nan
79461;BME280;68929;42.666;23.324;2023-08-08T00:40:03;94433.97;;;17.18;nan
79461;BME280;68929;42.666;23.324;2023-08-08T00:42:28;94423.88;;;17.30;nan
79461;BME280;68929;42.666;23.324;2023-08-08T00:44:54;94432.91;;;17.19;nan
79461;BME280;68929;42.666;23.324;2023-08-08T00:47:20;94455.53;;;17.06;nan
79461;BME280;68929;42.666;23.324;2023-08-08T00:49:45;94463.66;;;17.31;nan
79461;BME280;68929;42.666;23.324;2023-08-08T00:52:13;94468.13;;;17.16;nan
79461;BME280;68929;42.666;23.324;2023-08-08T00:54:40;94438.06;;;16.89;nan
79461;BME280;68929;42.666;23.324;2023-08-08T00:57:05;94444.63;;;16.44;nan
79461;BME280;68929;42.666;23.324;2023-08-08T00:59:31;94465.75;;;17.19;nan
79461;BME280;68929;42.666;23.324;2023-08-08T01:01:57;94461.31;;;16.93;nan
79461;BME280;68929;42.666;23.324;2023-08-08T01:04:25;94455.34;;;17.18;nan
79461;BME280;68929;42.666;23.324;2023-08-08T01:09:41;94452.50;;;16.93;nan
79461;BME280;68929;42.666;23.324;2023-08-08T01:12:11;94456.97;;;16.82;nan
79461;BME280;68929;42.666;23.324;2023-08-08T01:14:39;94451.63;;;17.19;nan
79461;BME280;68929;42.666;23.324;2023-08-08T01:17:06;94463.59;;;16.74;nan
79461;BME280;68929;42.666;23.324;2023-08-08T01:19:32;94455.03;;;16.72;nan
79461;BME280;68929;42.666;23.324;2023-08-08T01:22:05;94473.59;;;16.57;nan
79461;BME280;68929;42.666;23.324;2023-08-08T01:24:31;94474.91;;;16.28;nan
79461;BME280;68929;42.666;23.324;2023-08-08T01:27:00;94464.94;;;16.19;nan
79461;BME280;68929;42.666;23.324;2023-08-08T01:29:26;94482.81;;;16.76;nan
79461;BME280;68929;42.666;23.324;2023-08-08T01:31:52;94483.16;;;16.85;nan
79461;BME280;68929;42.666;23.324;2023-08-08T01:34:18;94467.25;;;16.37;nan
79461;BME280;68929;42.666;23.324;2023-08-08T01:36:51;94481.59;;;16.89;nan
79461;BME280;68929;42.666;23.324;2023-08-08T01:39:24;94461.75;;;16.80;nan
79461;BME280;68929;42.666;23.324;2023-08-08T01:41:50;94499.88;;;16.75;nan
79461;BME280;68929;42.666;23.324;2023-08-08T01:44:18;94504.00;;;16.56;nan
79461;BME280;68929;42.666;23.324;2023-08-08T01:46:43;94505.34;;;16.32;nan
79461;BME280;68929;42.666;23.324;2023-08-08T01:49:09;94510.69;;;15.84;nan
79461;BME280;68929;42.666;23.324;2023-08-08T01:51:34;94512.56;;;15.62;nan
79461;BME280;68929;42.666;23.324;2023-08-08T01:53:59;94499.66;;;15.97;nan
79461;BME280;68929;42.666;23.324;2023-08-08T01:56:25;94516.69;;;15.96;nan
79461;BME280;68929;42.666;23.324;2023-08-08T01:58:50;94529.06;;;16.29;nan
79461;BME280;68929;42.666;23.324;2023-08-08T02:01:15;94522.72;;;16.35;nan
79461;BME280;68929;42.666;23.324;2023-08-08T02:03:41;94537.50;;;16.47;nan
79461;BME280;68929;42.666;23.324;2023-08-08T02:06:06;94535.47;;;16.81;nan
79461;BME280;68929;42.666;23.324;2023-08-08T02:08:32;94530.06;;;16.76;nan
79461;BME280;68929;42.666;23.324;2023-08-08T02:10:57;94523.91;;;16.75;nan
79461;BME280;68929;42.666;23.324;2023-08-08T02:13:26;94518.38;;;16.29;nan
79461;BME280;68929;42.666;23.324;2023-08-08T02:15:51;94526.72;;;16.11;nan
79461;BME280;68929;42.666;23.324;2023-08-08T02:18:18;94536.91;;;16.40;nan
79461;BME280;68929;42.666;23.324;2023-08-08T02:20:43;94526.63;;;16.27;nan
79461;BME280;68929;42.666;23.324;2023-08-08T02:23:08;94538.47;;;16.15;nan
79461;BME280;68929;42.666;23.324;2023-08-08T02:25:34;94556.16;;;17.01;nan
79461;BME280;68929;42.666;23.324;2023-08-08T02:27:59;94528.16;;;16.71;nan
79461;BME280;68929;42.666;23.324;2023-08-08T02:30:25;94534.25;;;16.99;nan
79461;BME280;68929;42.666;23.324;2023-08-08T02:32:50;94568.94;;;16.94;nan
79461;BME280;68929;42.666;23.324;2023-08-08T02:35:16;94559.56;;;16.91;nan
79461;BME280;68929;42.666;23.324;2023-08-08T02:37:41;94536.84;;;16.89;nan
79461;BME280;68929;42.666;23.324;2023-08-08T02:40:07;94537.19;;;16.44;nan
79461;BME280;68929;42.666;23.324;2023-08-08T02:42:33;94563.53;;;16.89;nan
79461;BME280;68929;42.666;23.324;2023-08-08T02:44:58;94551.13;;;16.72;nan
79461;BME280;68929;42.666;23.324;2023-08-08T02:47:24;94555.84;;;16.65;nan
79461;BME280;68929;42.666;23.324;2023-08-08T02:49:50;94575.69;;;16.74;nan
79461;BME280;68929;42.666;23.324;2023-08-08T02:52:15;94559.63;;;16.21;nan
79461;BME280;68929;42.666;23.324;2023-08-08T02:54:40;94564.47;;;16.24;nan
79461;BME280;68929;42.666;23.324;2023-08-08T02:57:06;94563.00;;;16.33;nan
79461;BME280;68929;42.666;23.324;2023-08-08T02:59:31;94593.81;;;16.24;nan
79461;BME280;68929;42.666;23.324;2023-08-08T03:01:57;94587.50;;;16.52;nan
79461;BME280;68929;42.666;23.324;2023-08-08T03:04:22;94575.47;;;16.54;nan
79461;BME280;68929;42.666;23.324;2023-08-08T03:06:47;94565.38;;;16.08;nan
79461;BME280;68929;42.666;23.324;2023-08-08T03:09:13;94573.53;;;15.80;nan
79461;BME280;68929;42.666;23.324;2023-08-08T03:11:38;94529.03;;;15.59;nan
79461;BME280;68929;42.666;23.324;2023-08-08T03:14:07;94589.56;;;15.63;nan
79461;BME280;68929;42.666;23.324;2023-08-08T03:16:33;94588.41;;;15.76;nan
79461;BME280;68929;42.666;23.324;2023-08-08T03:18:58;94580.53;;;15.64;nan
79461;BME280;68929;42.666;23.324;2023-08-08T03:21:23;94571.59;;;15.75;nan
79461;BME280;68929;42.666;23.324;2023-08-08T03:23:49;94593.81;;;15.81;nan
79461;BME280;68929;42.666;23.324;2023-08-08T03:26:14;94590.44;;;15.69;nan
79461;BME280;68929;42.666;23.324;2023-08-08T03:28:40;94605.09;;;15.66;nan
79461;BME280;68929;42.666;23.324;2023-08-08T03:31:05;94578.94;;;15.47;nan
79461;BME280;68929;42.666;23.324;2023-08-08T03:33:30;94581.38;;;15.15;nan
79461;BME280;68929;42.666;23.324;2023-08-08T03:35:56;94597.59;;;15.47;nan
79461;BME280;68929;42.666;23.324;2023-08-08T03:38:21;94587.31;;;15.39;nan
79461;BME280;68929;42.666;23.324;2023-08-08T03:40:48;94595.41;;;15.44;nan
79461;BME280;68929;42.666;23.324;2023-08-08T03:43:13;94601.13;;;15.36;nan
79461;BME280;68929;42.666;23.324;2023-08-08T03:45:38;94592.84;;;15.49;nan
79461;BME280;68929;42.666;23.324;2023-08-08T03:48:04;94608.91;;;15.54;nan
79461;BME280;68929;42.666;23.324;2023-08-08T03:50:30;94597.28;;;15.27;nan
79461;BME280;68929;42.666;23.324;2023-08-08T03:52:55;94591.41;;;15.08;nan
79461;BME280;68929;42.666;23.324;2023-08-08T03:55:20;94602.19;;;15.35;nan
79461;BME280;68929;42.666;23.324;2023-08-08T03:57:46;94593.06;;;15.31;nan
79461;BME280;68929;42.666;23.324;2023-08-08T04:00:11;94577.72;;;15.38;nan
79461;BME280;68929;42.666;23.324;2023-08-08T04:02:37;94581.28;;;15.81;nan
79461;BME280;68929;42.666;23.324;2023-08-08T04:05:02;94603.19;;;16.05;nan
79461;BME280;68929;42.666;23.324;2023-08-08T04:07:28;94596.63;;;15.53;nan
79461;BME280;68929;42.666;23.324;2023-08-08T04:09:53;94605.69;;;15.52;nan
79461;BME280;68929;42.666;23.324;2023-08-08T04:12:18;94604.28;;;15.33;nan
79461;BME280;68929;42.666;23.324;2023-08-08T04:14:44;94625.34;;;15.51;nan
79461;BME280;68929;42.666;23.324;2023-08-08T04:17:09;94628.81;;;15.68;nan
79461;BME280;68929;42.666;23.324;2023-08-08T04:19:35;94635.94;;;15.62;nan
79461;BME280;68929;42.666;23.324;2023-08-08T04:22:00;94609.09;;;15.69;nan
79461;BME280;68929;42.666;23.324;2023-08-08T04:24:25;94621.41;;;15.53;nan
79461;BME280;68929;42.666;23.324;2023-08-08T04:26:51;94621.56;;;15.47;nan
79461;BME280;68929;42.666;23.324;2023-08-08T04:29:16;94627.03;;;15.23;nan
79461;BME280;68929;42.666;23.324;2023-08-08T04:31:41;94655.94;;;15.32;nan
79461;BME280;68929;42.666;23.324;2023-08-08T04:34:07;94647.53;;;15.40;nan
79461;BME280;68929;42.666;23.324;2023-08-08T04:36:32;94639.88;;;15.60;nan
79461;BME280;68929;42.666;23.324;2023-08-08T04:38:58;94621.69;;;15.40;nan
79461;BME280;68929;42.666;23.324;2023-08-08T04:41:23;94652.72;;;15.63;nan
79461;BME280;68929;42.666;23.324;2023-08-08T04:43:49;94649.16;;;15.57;nan
79461;BME280;68929;42.666;23.324;2023-08-08T04:46:14;94623.91;;;15.60;nan
79461;BME280;68929;42.666;23.324;2023-08-08T04:48:40;94630.06;;;15.82;nan
79461;BME280;68929;42.666;23.324;2023-08-08T04:51:05;94631.94;;;16.03;nan
79461;BME280;68929;42.666;23.324;2023-08-08T04:53:31;94633.50;;;15.99;nan
79461;BME280;68929;42.666;23.324;2023-08-08T04:56:05;94633.59;;;16.04;nan
79461;BME280;68929;42.666;23.324;2023-08-08T04:58:30;94641.50;;;15.99;nan
79461;BME280;68929;42.666;23.324;2023-08-08T05:00:55;94642.66;;;15.86;nan
79461;BME280;68929;42.666;23.324;2023-08-08T05:03:26;94654.06;;;15.82;nan
79461;BME280;68929;42.666;23.324;2023-08-08T05:06:00;94672.31;;;15.73;nan
79461;BME280;68929;42.666;23.324;2023-08-08T05:08:26;94672.34;;;16.12;nan
79461;BME280;68929;42.666;23.324;2023-08-08T05:10:51;94667.66;;;16.02;nan
79461;BME280;68929;42.666;23.324;2023-08-08T05:13:16;94672.69;;;15.98;nan
79461;BME280;68929;42.666;23.324;2023-08-08T05:15:42;94689.22;;;15.62;nan
79461;BME280;68929;42.666;23.324;2023-08-08T05:18:09;94698.56;;;15.65;nan
79461;BME280;68929;42.666;23.324;2023-08-08T05:20:35;94690.16;;;15.73;nan
79461;BME280;68929;42.666;23.324;2023-08-08T05:23:00;94687.16;;;15.86;nan
79461;BME280;68929;42.666;23.324;2023-08-08T05:25:25;94716.16;;;16.37;nan
79461;BME280;68929;42.666;23.324;2023-08-08T05:27:51;94694.13;;;16.47;nan
79461;BME280;68929;42.666;23.324;2023-08-08T05:30:16;94693.84;;;16.05;nan
79461;BME280;68929;42.666;23.324;2023-08-08T05:32:42;94699.88;;;15.79;nan
79461;BME280;68929;42.666;23.324;2023-08-08T05:35:07;94680.97;;;15.80;nan
79461;BME280;68929;42.666;23.324;2023-08-08T05:37:33;94726.31;;;16.02;nan
79461;BME280;68929;42.666;23.324;2023-08-08T05:39:58;94705.88;;;16.29;nan
79461;BME280;68929;42.666;23.324;2023-08-08T05:42:24;94733.63;;;16.66;nan
79461;BME280;68929;42.666;23.324;2023-08-08T05:44:49;94732.06;;;16.70;nan
79461;BME280;68929;42.666;23.324;2023-08-08T05:47:14;94731.91;;;17.04;nan
79461;BME280;68929;42.666;23.324;2023-08-08T05:49:40;94742.34;;;17.32;nan
79461;BME280;68929;42.666;23.324;2023-08-08T05:52:08;94749.50;;;17.00;nan
79461;BME280;68929;42.666;23.324;2023-08-08T05:54:34;94742.88;;;16.81;nan
79461;BME280;68929;42.666;23.324;2023-08-08T05:57:06;94720.84;;;16.68;nan
79461;BME280;68929;42.666;23.324;2023-08-08T05:59:32;94737.28;;;16.82;nan
79461;BME280;68929;42.666;23.324;2023-08-08T06:01:57;94754.97;;;16.66;nan
79461;BME280;68929;42.666;23.324;2023-08-08T06:04:24;94762.84;;;16.56;nan
79461;BME280;68929;42.666;23.324;2023-08-08T06:06:51;94766.53;;;16.72;nan
79461;BME280;68929;42.666;23.324;2023-08-08T06:09:16;94760.19;;;17.00;nan
79461;BME280;68929;42.666;23.324;2023-08-08T06:11:44;94754.00;;;16.72;nan
79461;BME280;68929;42.666;23.324;2023-08-08T06:14:10;94744.72;;;16.58;nan
79461;BME280;68929;42.666;23.324;2023-08-08T06:16:35;94759.06;;;16.96;nan
79461;BME280;68929;42.666;23.324;2023-08-08T06:19:00;94746.25;;;16.54;nan
79461;BME280;68929;42.666;23.324;2023-08-08T06:21:26;94755.22;;;16.65;nan
79461;BME280;68929;42.666;23.324;2023-08-08T06:23:52;94755.84;;;16.94;nan
79461;BME280;68929;42.666;23.324;2023-08-08T06:26:20;94759.63;;;16.76;nan
79461;BME280;68929;42.666;23.324;2023-08-08T06:28:46;94758.16;;;17.12;nan
79461;BME280;68929;42.666;23.324;2023-08-08T06:31:13;94760.00;;;17.06;nan
79461;BME280;68929;42.666;23.324;2023-08-08T06:33:38;94743.97;;;17.33;nan
79461;BME280;68929;42.666;23.324;2023-08-08T06:36:03;94740.53;;;17.64;nan
79461;BME280;68929;42.666;23.324;2023-08-08T06:38:29;94734.66;;;17.67;nan
79461;BME280;68929;42.666;23.324;2023-08-08T06:41:00;94745.19;;;18.10;nan
79461;BME280;68929;42.666;23.324;2023-08-08T06:43:30;94752.34;;;18.42;nan
79461;BME280;68929;42.666;23.324;2023-08-08T06:45:56;94748.47;;;18.22;nan
79461;BME280;68929;42.666;23.324;2023-08-08T06:48:21;94737.53;;;17.92;nan
79461;BME280;68929;42.666;23.324;2023-08-08T06:50:46;94742.31;;;17.85;nan
79461;BME280;68929;42.666;23.324;2023-08-08T06:53:12;94750.44;;;18.00;nan
79461;BME280;68929;42.666;23.324;2023-08-08T06:55:37;94758.56;;;18.15;nan
79461;BME280;68929;42.666;23.324;2023-08-08T06:58:08;94751.31;;;17.74;nan
79461;BME280;68929;42.666;23.324;2023-08-08T07:00:36;94755.81;;;17.69;nan
79461;BME280;68929;42.666;23.324;2023-08-08T07:03:01;94774.75;;;17.94;nan
79461;BME280;68929;42.666;23.324;2023-08-08T07:05:27;94754.69;;;17.96;nan
79461;BME280;68929;42.666;23.324;2023-08-08T07:07:52;94745.75;;;17.81;nan
79461;BME280;68929;42.666;23.324;2023-08-08T07:10:18;94756.53;;;17.91;nan
79461;BME280;68929;42.666;23.324;2023-08-08T07:12:44;94746.47;;;17.71;nan
79461;BME280;68929;42.666;23.324;2023-08-08T07:15:11;94757.69;;;18.05;nan
79461;BME280;68929;42.666;23.324;2023-08-08T07:17:37;94758.94;;;17.92;nan
79461;BME280;68929;42.666;23.324;2023-08-08T07:20:03;94765.72;;;18.05;nan
79461;BME280;68929;42.666;23.324;2023-08-08T07:22:29;94745.09;;;18.00;nan
79461;BME280;68929;42.666;23.324;2023-08-08T07:24:54;94727.19;;;17.64;nan
79461;BME280;68929;42.666;23.324;2023-08-08T07:27:19;94735.69;;;17.93;nan
79461;BME280;68929;42.666;23.324;2023-08-08T07:29:48;94750.38;;;17.90;nan
79461;BME280;68929;42.666;23.324;2023-08-08T07:32:13;94764.81;;;17.89;nan
79461;BME280;68929;42.666;23.324;2023-08-08T07:34:38;94746.44;;;17.98;nan
79461;BME280;68929;42.666;23.324;2023-08-08T07:37:04;94758.25;;;18.07;nan
79461;BME280;68929;42.666;23.324;2023-08-08T07:39:29;94765.78;;;18.10;nan
79461;BME280;68929;42.666;23.324;2023-08-08T07:41:55;94759.22;;;18.32;nan
79461;BME280;68929;42.666;23.324;2023-08-08T07:44:21;94760.25;;;18.68;nan
79461;BME280;68929;42.666;23.324;2023-08-08T07:46:46;94754.75;;;18.90;nan
79461;BME280;68929;42.666;23.324;2023-08-08T07:49:12;94764.88;;;18.88;nan
79461;BME280;68929;42.666;23.324;2023-08-08T07:51:41;94758.78;;;18.97;nan
79461;BME280;68929;42.666;23.324;2023-08-08T07:54:08;94774.78;;;18.82;nan
79461;BME280;68929;42.666;23.324;2023-08-08T07:56:36;94767.59;;;18.93;nan
79461;BME280;68929;42.666;23.324;2023-08-08T07:59:06;94757.03;;;18.71;nan
79461;BME280;68929;42.666;23.324;2023-08-08T08:01:31;94735.50;;;19.08;nan
79461;BME280;68929;42.666;23.324;2023-08-08T08:03:57;94739.13;;;18.67;nan
79461;BME280;68929;42.666;23.324;2023-08-08T08:06:23;94750.16;;;18.90;nan
79461;BME280;68929;42.666;23.324;2023-08-08T08:08:49;94754.13;;;18.73;nan
79461;BME280;68929;42.666;23.324;2023-08-08T08:11:14;94760.94;;;19.05;nan
79461;BME280;68929;42.666;23.324;2023-08-08T08:13:41;94734.66;;;18.87;nan
79461;BME280;68929;42.666;23.324;2023-08-08T08:16:06;94750.63;;;19.44;nan
79461;BME280;68929;42.666;23.324;2023-08-08T08:18:32;94754.69;;;19.97;nan
79461;BME280;68929;42.666;23.324;2023-08-08T08:20:58;94741.00;;;19.68;nan
79461;BME280;68929;42.666;23.324;2023-08-08T08:23:24;94739.38;;;20.03;nan
79461;BME280;68929;42.666;23.324;2023-08-08T08:25:50;94742.84;;;19.43;nan
79461;BME280;68929;42.666;23.324;2023-08-08T08:28:15;94762.44;;;19.48;nan
79461;BME280;68929;42.666;23.324;2023-08-08T08:30:41;94748.50;;;19.86;nan
79461;BME280;68929;42.666;23.324;2023-08-08T08:33:06;94758.72;;;19.84;nan
79461;BME280;68929;42.666;23.324;2023-08-08T08:35:34;94760.75;;;19.27;nan
79461;BME280;68929;42.666;23.324;2023-08-08T08:37:59;94760.44;;;19.08;nan
79461;BME280;68929;42.666;23.324;2023-08-08T08:40:25;94741.13;;;19.01;nan
79461;BME280;68929;42.666;23.324;2023-08-08T08:42:55;94736.44;;;19.54;nan
79461;BME280;68929;42.666;23.324;2023-08-08T08:45:22;94742.34;;;19.66;nan
79461;BME280;68929;42.666;23.324;2023-08-08T08:47:49;94761.41;;;19.79;nan
79461;BME280;68929;42.666;23.324;2023-08-08T08:50:17;94737.25;;;19.94;nan
79461;BME280;68929;42.666;23.324;2023-08-08T08:52:43;94740.19;;;20.28;nan
79461;BME280;68929;42.666;23.324;2023-08-08T08:55:09;94767.81;;;19.99;nan
79461;BME280;68929;42.666;23.324;2023-08-08T08:57:41;94731.34;;;20.03;nan
79461;BME280;68929;42.666;23.324;2023-08-08T09:00:16;94760.31;;;19.70;nan
79461;BME280;68929;42.666;23.324;2023-08-08T09:02:41;94757.09;;;20.14;nan
79461;BME280;68929;42.666;23.324;2023-08-08T09:05:13;94743.16;;;20.07;nan
79461;BME280;68929;42.666;23.324;2023-08-08T09:07:40;94745.28;;;20.30;nan
79461;BME280;68929;42.666;23.324;2023-08-08T09:10:17;94751.09;;;20.77;nan
79461;BME280;68929;42.666;23.324;2023-08-08T09:12:42;94751.66;;;20.69;nan
79461;BME280;68929;42.666;23.324;2023-08-08T09:15:09;94742.31;;;20.46;nan
79461;BME280;68929;42.666;23.324;2023-08-08T09:17:35;94746.84;;;20.61;nan
79461;BME280;68929;42.666;23.324;2023-08-08T09:20:01;94748.84;;;21.09;nan
79461;BME280;68929;42.666;23.324;2023-08-08T09:22:26;94747.72;;;20.31;nan
79461;BME280;68929;42.666;23.324;2023-08-08T09:24:54;94751.91;;;20.73;nan
79461;BME280;68929;42.666;23.324;2023-08-08T09:27:20;94735.09;;;20.42;nan
79461;BME280;68929;42.666;23.324;2023-08-08T09:29:46;94764.59;;;20.32;nan
79461;BME280;68929;42.666;23.324;2023-08-08T09:32:14;94749.06;;;20.24;nan
79461;BME280;68929;42.666;23.324;2023-08-08T09:34:43;94775.31;;;20.67;nan
79461;BME280;68929;42.666;23.324;2023-08-08T09:37:14;94774.69;;;20.90;nan
79461;BME280;68929;42.666;23.324;2023-08-08T09:39:39;94765.19;;;20.34;nan
79461;BME280;68929;42.666;23.324;2023-08-08T09:42:05;94776.47;;;20.21;nan
79461;BME280;68929;42.666;23.324;2023-08-08T09:44:33;94779.13;;;19.96;nan
79461;BME280;68929;42.666;23.324;2023-08-08T09:47:00;94773.19;;;19.88;nan
79461;BME280;68929;42.666;23.324;2023-08-08T09:49:26;94770.50;;;20.14;nan
79461;BME280;68929;42.666;23.324;2023-08-08T09:51:52;94774.84;;;20.20;nan
79461;BME280;68929;42.666;23.324;2023-08-08T09:54:23;94755.19;;;20.44;nan
79461;BME280;68929;42.666;23.324;2023-08-08T09:56:49;94772.16;;;20.25;nan
79461;BME280;68929;42.666;23.324;2023-08-08T09:59:16;94771.06;;;20.41;nan
79461;BME280;68929;42.666;23.324;2023-08-08T10:01:54;94752.16;;;20.76;nan
79461;BME280;68929;42.666;23.324;2023-08-08T10:04:24;94741.38;;;20.91;nan
79461;BME280;68929;42.666;23.324;2023-08-08T10:06:49;94762.94;;;21.40;nan
79461;BME280;68929;42.666;23.324;2023-08-08T10:09:15;94774.09;;;22.01;nan
79461;BME280;68929;42.666;23.324;2023-08-08T10:11:42;94758.03;;;21.91;nan
79461;BME280;68929;42.666;23.324;2023-08-08T10:14:09;94752.88;;;22.28;nan
79461;BME280;68929;42.666;23.324;2023-08-08T10:16:39;94754.09;;;23.17;nan
79461;BME280;68929;42.666;23.324;2023-08-08T10:19:06;94743.00;;;22.99;nan
79461;BME280;68929;42.666;23.324;2023-08-08T10:21:35;94775.94;;;22.96;nan
79461;BME280;68929;42.666;23.324;2023-08-08T10:24:10;94766.94;;;21.91;nan
79461;BME280;68929;42.666;23.324;2023-08-08T10:27:07;94752.88;;;22.85;nan
79461;BME280;68929;42.666;23.324;2023-08-08T10:29:33;94764.97;;;23.54;nan
79461;BME280;68929;42.666;23.324;2023-08-08T10:32:00;94773.56;;;23.56;nan
79461;BME280;68929;42.666;23.324;2023-08-08T10:34:46;94744.81;;;24.02;nan
79461;BME280;68929;42.666;23.324;2023-08-08T10:37:16;94746.25;;;25.05;nan
79461;BME280;68929;42.666;23.324;2023-08-08T10:39:58;94753.53;;;25.18;nan
79461;BME280;68929;42.666;23.324;2023-08-08T10:42:28;94752.97;;;24.80;nan
79461;BME280;68929;42.666;23.324;2023-08-08T10:44:57;94742.94;;;23.84;nan
79461;BME280;68929;42.666;23.324;2023-08-08T10:47:29;94745.75;;;22.94;nan
79461;BME280;68929;42.666;23.324;2023-08-08T10:50:06;94736.75;;;23.23;nan
79461;BME280;68929;42.666;23.324;2023-08-08T10:55:41;94734.25;;;24.51;nan
79461;BME280;68929;42.666;23.324;2023-08-08T10:58:08;94740.50;;;25.33;nan
79461;BME280;68929;42.666;23.324;2023-08-08T11:00:36;94712.94;;;24.36;nan
79461;BME280;68929;42.666;23.324;2023-08-08T11:03:08;94735.44;;;25.05;nan
79461;BME280;68929;42.666;23.324;2023-08-08T11:05:38;94727.78;;;25.34;nan
79461;BME280;68929;42.666;23.324;2023-08-08T11:08:05;94719.47;;;25.80;nan
79461;BME280;68929;42.666;23.324;2023-08-08T11:10:38;94736.44;;;26.30;nan
79461;BME280;68929;42.666;23.324;2023-08-08T11:13:05;94740.22;;;26.51;nan
79461;BME280;68929;42.666;23.324;2023-08-08T11:15:35;94726.66;;;26.73;nan
79461;BME280;68929;42.666;23.324;2023-08-08T11:18:02;94743.88;;;27.73;nan
79461;BME280;68929;42.666;23.324;2023-08-08T11:20:32;94744.03;;;27.59;nan
79461;BME280;68929;42.666;23.324;2023-08-08T11:22:58;94743.13;;;26.85;nan
79461;BME280;68929;42.666;23.324;2023-08-08T11:25:28;94735.47;;;27.26;nan
79461;BME280;68929;42.666;23.324;2023-08-08T11:27:56;94708.81;;;26.50;nan
79461;BME280;68929;42.666;23.324;2023-08-08T11:30:22;94721.56;;;27.19;nan
79461;BME280;68929;42.666;23.324;2023-08-08T11:32:49;94730.31;;;27.81;nan
79461;BME280;68929;42.666;23.324;2023-08-08T11:35:21;94733.34;;;28.31;nan
79461;BME280;68929;42.666;23.324;2023-08-08T11:37:47;94729.22;;;28.88;nan
79461;BME280;68929;42.666;23.324;2023-08-08T11:40:14;94721.00;;;30.46;nan
79461;BME280;68929;42.666;23.324;2023-08-08T11:42:47;94718.94;;;28.94;nan
79461;BME280;68929;42.666;23.324;2023-08-08T11:45:13;94692.34;;;28.53;nan
79461;BME280;68929;42.666;23.324;2023-08-08T11:47:41;94728.91;;;28.01;nan
79461;BME280;68929;42.666;23.324;2023-08-08T11:50:08;94716.72;;;27.73;nan
79461;BME280;68929;42.666;23.324;2023-08-08T11:52:39;94719.91;;;27.92;nan
79461;BME280;68929;42.666;23.324;2023-08-08T11:55:06;94694.50;;;26.88;nan
79461;BME280;68929;42.666;23.324;2023-08-08T11:57:33;94684.66;;;26.70;nan
79461;BME280;68929;42.666;23.324;2023-08-08T12:00:06;94716.88;;;28.36;nan
79461;BME280;68929;42.666;23.324;2023-08-08T12:02:35;94701.38;;;28.28;nan
79461;BME280;68929;42.666;23.324;2023-08-08T12:05:07;94709.25;;;28.84;nan
79461;BME280;68929;42.666;23.324;2023-08-08T12:07:33;94706.44;;;27.35;nan
79461;BME280;68929;42.666;23.324;2023-08-08T12:10:05;94718.56;;;26.81;nan
79461;BME280;68929;42.666;23.324;2023-08-08T12:12:33;94710.81;;;26.97;nan
79461;BME280;68929;42.666;23.324;2023-08-08T12:15:07;94700.78;;;27.15;nan
79461;BME280;68929;42.666;23.324;2023-08-08T12:17:34;94683.66;;;27.88;nan
79461;BME280;68929;42.666;23.324;2023-08-08T12:19:59;94664.75;;;28.25;nan
79461;BME280;68929;42.666;23.324;2023-08-08T12:22:25;94685.09;;;27.59;nan
79461;BME280;68929;42.666;23.324;2023-08-08T12:24:51;94684.59;;;27.49;nan
79461;BME280;68929;42.666;23.324;2023-08-08T12:27:16;94683.47;;;27.58;nan
79461;BME280;68929;42.666;23.324;2023-08-08T12:29:42;94661.31;;;27.99;nan
79461;BME280;68929;42.666;23.324;2023-08-08T12:32:07;94675.81;;;27.78;nan
79461;BME280;68929;42.666;23.324;2023-08-08T12:34:34;94665.75;;;27.87;nan
79461;BME280;68929;42.666;23.324;2023-08-08T12:36:59;94670.75;;;27.03;nan
79461;BME280;68929;42.666;23.324;2023-08-08T12:39:25;94660.63;;;27.77;nan
79461;BME280;68929;42.666;23.324;2023-08-08T12:41:50;94672.22;;;29.71;nan
79461;BME280;68929;42.666;23.324;2023-08-08T12:44:16;94661.09;;;30.17;nan
79461;BME280;68929;42.666;23.324;2023-08-08T12:46:45;94657.41;;;30.78;nan
79461;BME280;68929;42.666;23.324;2023-08-08T12:49:11;94679.00;;;29.65;nan
79461;BME280;68929;42.666;23.324;2023-08-08T12:51:39;94687.41;;;29.01;nan
79461;BME280;68929;42.666;23.324;2023-08-08T12:54:08;94679.81;;;27.63;nan
79461;BME280;68929;42.666;23.324;2023-08-08T12:56:34;94662.06;;;26.44;nan
79461;BME280;68929;42.666;23.324;2023-08-08T12:58:59;94671.66;;;27.89;nan
79461;BME280;68929;42.666;23.324;2023-08-08T13:01:25;94648.81;;;28.70;nan
79461;BME280;68929;42.666;23.324;2023-08-08T13:03:50;94674.03;;;29.17;nan
79461;BME280;68929;42.666;23.324;2023-08-08T13:06:16;94659.59;;;28.50;nan
79461;BME280;68929;42.666;23.324;2023-08-08T13:08:42;94655.56;;;28.64;nan
79461;BME280;68929;42.666;23.324;2023-08-08T13:11:07;94635.41;;;29.65;nan
79461;BME280;68929;42.666;23.324;2023-08-08T13:13:33;94646.50;;;30.01;nan